sensor_id;sensor_type;location;lat;lon;timestamp;noise_LAeq;noise_LA_min;noise_LA_max;noise_LA01;noise_LA95
64996;Laerm;51545;51.568;6.998;2023-12-29T00:00:43;60.07;49.04;74.64;;
64996;Laerm;51545;51.568;6.998;2023-12-29T00:03:08;59.04;46.27;73.47;;
64996;Laerm;51545;51.568;6.998;2023-12-29T00:05:34;60.82;49.12;75.16;;
64996;Laerm;51545;51.568;6.998;2023-12-29T00:08:00;60.88;50.48;76.46;;
64996;Laerm;51545;51.568;6.998;2023-12-29T00:10:26;60.97;47.90;78.60;;
64996;Laerm;51545;51.568;6.998;2023-12-29T00:12:52;61.05;49.16;81.56;;
64996;Laerm;51545;51.568;6.998;2023-12-29T00:15:18;59.87;48.50;70.99;;
64996;Laerm;51545;51.568;6.998;2023-12-29T00:17:46;63.04;47.71;79.85;;
64996;Laerm;51545;51.568;6.998;2023-12-29T00:20:12;60.48;48.09;73.88;;
64996;Laerm;51545;51.568;6.998;2023-12-29T00:22:38;60.98;48.19;71.83;;
64996;Laerm;51545;51.568;6.998;2023-12-29T00:25:05;62.07;49.02;72.75;;
64996;Laerm;51545;51.568;6.998;2023-12-29T00:27:35;62.15;48.82;76.23;;
64996;Laerm;51545;51.568;6.998;2023-12-29T00:30:02;61.70;48.93;77.66;;
64996;Laerm;51545;51.568;6.998;2023-12-29T00:32:28;61.06;49.62;73.89;;
64996;Laerm;51545;51.568;6.998;2023-12-29T00:34:55;60.96;47.51;72.22;;
64996;Laerm;51545;51.568;6.998;2023-12-29T00:37:21;59.69;45.04;74.33;;
64996;Laerm;51545;51.568;6.998;2023-12-29T00:39:47;60.41;48.25;77.24;;
64996;Laerm;51545;51.568;6.998;2023-12-29T00:42:14;62.61;50.07;75.67;;
64996;Laerm;51545;51.568;6.998;2023-12-29T00:44:41;62.06;46.19;75.24;;
64996;Laerm;51545;51.568;6.998;2023-12-29T00:47:07;63.48;49.51;77.44;;
64996;Laerm;51545;51.568;6.998;2023-12-29T00:49:33;63.80;49.77;75.11;;
64996;Laerm;51545;51.568;6.998;2023-12-29T00:52:00;63.54;51.06;77.53;;
64996;Laerm;51545;51.568;6.998;2023-12-29T00:54:28;63.03;49.81;75.22;;
64996;Laerm;51545;51.568;6.998;2023-12-29T00:56:54;62.53;48.84;77.14;;
64996;Laerm;51545;51.568;6.998;2023-12-29T00:59:20;63.93;51.73;76.76;;
64996;Laerm;51545;51.568;6.998;2023-12-29T01:01:46;63.20;48.94;77.66;;
64996;Laerm;51545;51.568;6.998;2023-12-29T01:04:12;60.98;47.64;77.51;;
64996;Laerm;51545;51.568;6.998;2023-12-29T01:06:38;62.03;47.25;78.79;;
64996;Laerm;51545;51.568;6.998;2023-12-29T01:09:04;60.85;47.70;74.60;;
64996;Laerm;51545;51.568;6.998;2023-12-29T01:11:29;60.70;46.61;72.61;;
64996;Laerm;51545;51.568;6.998;2023-12-29T01:13:56;62.02;49.72;77.17;;
64996;Laerm;51545;51.568;6.998;2023-12-29T01:16:21;60.39;47.11;73.40;;
64996;Laerm;51545;51.568;6.998;2023-12-29T01:18:47;59.47;48.13;73.29;;
64996;Laerm;51545;51.568;6.998;2023-12-29T01:21:13;58.40;43.96;76.48;;
64996;Laerm;51545;51.568;6.998;2023-12-29T01:23:39;57.84;47.20;72.66;;
64996;Laerm;51545;51.568;6.998;2023-12-29T01:26:05;59.29;47.24;70.40;;
64996;Laerm;51545;51.568;6.998;2023-12-29T01:28:32;60.10;45.42;77.13;;
64996;Laerm;51545;51.568;6.998;2023-12-29T01:30:58;59.94;49.10;76.61;;
64996;Laerm;51545;51.568;6.998;2023-12-29T01:33:23;59.56;46.38;73.41;;
64996;Laerm;51545;51.568;6.998;2023-12-29T01:35:49;59.89;46.72;76.09;;
64996;Laerm;51545;51.568;6.998;2023-12-29T01:38:15;60.84;49.21;76.95;;
64996;Laerm;51545;51.568;6.998;2023-12-29T01:40:46;65.01;50.39;82.37;;
64996;Laerm;51545;51.568;6.998;2023-12-29T01:43:13;61.10;48.69;75.45;;
64996;Laerm;51545;51.568;6.998;2023-12-29T01:45:39;61.76;49.37;74.19;;
64996;Laerm;51545;51.568;6.998;2023-12-29T01:48:05;60.77;47.38;75.71;;
64996;Laerm;51545;51.568;6.998;2023-12-29T01:50:31;61.67;47.52;77.17;;
64996;Laerm;51545;51.568;6.998;2023-12-29T01:52:59;59.01;46.25;71.08;;
64996;Laerm;51545;51.568;6.998;2023-12-29T01:55:28;59.57;44.91;75.39;;
64996;Laerm;51545;51.568;6.998;2023-12-29T01:57:54;56.35;41.11;68.84;;
64996;Laerm;51545;51.568;6.998;2023-12-29T02:00:21;57.98;42.36;74.82;;
64996;Laerm;51545;51.568;6.998;2023-12-29T02:02:47;50.04;41.35;63.37;;
64996;Laerm;51545;51.568;6.998;2023-12-29T02:05:15;47.55;41.03;59.96;;
64996;Laerm;51545;51.568;6.998;2023-12-29T02:07:43;43.80;40.91;53.60;;
64996;Laerm;51545;51.568;6.998;2023-12-29T02:10:13;43.44;40.88;53.10;;
64996;Laerm;51545;51.568;6.998;2023-12-29T02:12:41;42.18;40.60;52.17;;
64996;Laerm;51545;51.568;6.998;2023-12-29T02:15:07;45.03;40.70;54.27;;
64996;Laerm;51545;51.568;6.998;2023-12-29T02:17:45;43.66;40.55;53.91;;
64996;Laerm;51545;51.568;6.998;2023-12-29T02:20:11;43.74;40.45;51.91;;
64996;Laerm;51545;51.568;6.998;2023-12-29T02:26:37;42.96;39.97;53.53;;
64996;Laerm;51545;51.568;6.998;2023-12-29T02:29:07;43.90;40.09;53.03;;
64996;Laerm;51545;51.568;6.998;2023-12-29T02:31:39;44.68;40.10;57.95;;
64996;Laerm;51545;51.568;6.998;2023-12-29T02:34:12;42.43;40.15;51.41;;
64996;Laerm;51545;51.568;6.998;2023-12-29T02:36:42;42.81;39.22;54.73;;
64996;Laerm;51545;51.568;6.998;2023-12-29T02:39:10;43.82;39.63;56.57;;
64996;Laerm;51545;51.568;6.998;2023-12-29T02:41:38;42.62;39.75;55.26;;
64996;Laerm;51545;51.568;6.998;2023-12-29T02:44:04;42.92;39.96;49.69;;
64996;Laerm;51545;51.568;6.998;2023-12-29T02:46:30;42.68;39.76;47.80;;
64996;Laerm;51545;51.568;6.998;2023-12-29T02:48:56;43.47;39.63;55.12;;
64996;Laerm;51545;51.568;6.998;2023-12-29T02:51:22;45.57;39.77;60.30;;
64996;Laerm;51545;51.568;6.998;2023-12-29T02:53:49;43.04;39.63;49.39;;
64996;Laerm;51545;51.568;6.998;2023-12-29T02:56:15;43.02;39.90;50.59;;
64996;Laerm;51545;51.568;6.998;2023-12-29T02:58:41;46.66;40.88;56.65;;
64996;Laerm;51545;51.568;6.998;2023-12-29T03:01:07;41.54;39.32;53.60;;
64996;Laerm;51545;51.568;6.998;2023-12-29T03:03:33;41.98;39.81;49.08;;
64996;Laerm;51545;51.568;6.998;2023-12-29T03:06:00;42.91;39.36;52.63;;
64996;Laerm;51545;51.568;6.998;2023-12-29T03:08:25;41.10;39.25;52.61;;
64996;Laerm;51545;51.568;6.998;2023-12-29T03:10:51;42.03;39.36;49.33;;
64996;Laerm;51545;51.568;6.998;2023-12-29T03:13:17;41.66;39.41;50.45;;
64996;Laerm;51545;51.568;6.998;2023-12-29T03:15:43;41.72;38.92;48.97;;
64996;Laerm;51545;51.568;6.998;2023-12-29T03:18:09;40.96;39.40;45.16;;
64996;Laerm;51545;51.568;6.998;2023-12-29T03:20:35;41.42;39.34;47.28;;
64996;Laerm;51545;51.568;6.998;2023-12-29T03:23:01;42.04;39.51;48.28;;
64996;Laerm;51545;51.568;6.998;2023-12-29T03:25:27;43.66;39.30;59.23;;
64996;Laerm;51545;51.568;6.998;2023-12-29T03:27:53;45.40;39.60;55.96;;
64996;Laerm;51545;51.568;6.998;2023-12-29T03:30:18;47.13;40.76;56.25;;
64996;Laerm;51545;51.568;6.998;2023-12-29T03:32:44;47.04;40.30;58.07;;
64996;Laerm;51545;51.568;6.998;2023-12-29T03:35:10;44.19;39.27;54.33;;
64996;Laerm;51545;51.568;6.998;2023-12-29T03:37:37;44.94;39.66;54.08;;
64996;Laerm;51545;51.568;6.998;2023-12-29T03:40:03;42.46;39.15;51.67;;
64996;Laerm;51545;51.568;6.998;2023-12-29T03:42:29;42.18;39.19;49.64;;
64996;Laerm;51545;51.568;6.998;2023-12-29T03:44:55;43.93;39.89;51.98;;
64996;Laerm;51545;51.568;6.998;2023-12-29T03:47:21;44.46;39.62;53.66;;
64996;Laerm;51545;51.568;6.998;2023-12-29T03:49:47;44.38;39.91;51.45;;
64996;Laerm;51545;51.568;6.998;2023-12-29T03:52:13;42.17;39.37;50.35;;
64996;Laerm;51545;51.568;6.998;2023-12-29T03:54:39;44.44;39.44;57.33;;
64996;Laerm;51545;51.568;6.998;2023-12-29T03:57:05;48.12;39.80;63.12;;
64996;Laerm;51545;51.568;6.998;2023-12-29T03:59:30;45.35;39.82;59.28;;
64996;Laerm;51545;51.568;6.998;2023-12-29T04:01:56;45.06;38.93;55.55;;
64996;Laerm;51545;51.568;6.998;2023-12-29T04:04:23;42.98;39.59;53.44;;
64996;Laerm;51545;51.568;6.998;2023-12-29T04:06:49;44.92;39.82;53.39;;
64996;Laerm;51545;51.568;6.998;2023-12-29T04:09:15;44.73;39.74;57.17;;
64996;Laerm;51545;51.568;6.998;2023-12-29T04:11:41;44.21;40.02;54.89;;
64996;Laerm;51545;51.568;6.998;2023-12-29T04:14:12;44.71;39.89;53.48;;
64996;Laerm;51545;51.568;6.998;2023-12-29T04:16:39;44.49;40.24;57.09;;
64996;Laerm;51545;51.568;6.998;2023-12-29T04:19:05;43.13;40.20;50.56;;
64996;Laerm;51545;51.568;6.998;2023-12-29T04:21:31;45.09;40.37;56.94;;
64996;Laerm;51545;51.568;6.998;2023-12-29T04:23:57;43.62;40.17;51.05;;
64996;Laerm;51545;51.568;6.998;2023-12-29T04:26:23;44.94;40.04;59.02;;
64996;Laerm;51545;51.568;6.998;2023-12-29T04:28:49;47.79;41.95;59.01;;
64996;Laerm;51545;51.568;6.998;2023-12-29T04:31:14;45.42;39.40;52.18;;
64996;Laerm;51545;51.568;6.998;2023-12-29T04:33:40;43.79;39.33;54.64;;
64996;Laerm;51545;51.568;6.998;2023-12-29T04:36:06;47.45;40.28;60.61;;
64996;Laerm;51545;51.568;6.998;2023-12-29T04:38:32;47.49;39.71;60.48;;
64996;Laerm;51545;51.568;6.998;2023-12-29T04:40:58;44.72;40.09;55.29;;
64996;Laerm;51545;51.568;6.998;2023-12-29T04:43:24;47.45;40.86;57.48;;
64996;Laerm;51545;51.568;6.998;2023-12-29T04:45:50;46.24;40.24;60.89;;
64996;Laerm;51545;51.568;6.998;2023-12-29T04:48:16;52.98;43.76;63.74;;
64996;Laerm;51545;51.568;6.998;2023-12-29T04:50:42;50.79;41.14;65.22;;
64996;Laerm;51545;51.568;6.998;2023-12-29T04:53:08;50.95;41.02;64.04;;
64996;Laerm;51545;51.568;6.998;2023-12-29T04:55:34;49.57;41.93;60.63;;
64996;Laerm;51545;51.568;6.998;2023-12-29T04:58:00;53.46;42.46;64.01;;
64996;Laerm;51545;51.568;6.998;2023-12-29T05:00:26;48.43;42.28;59.13;;
64996;Laerm;51545;51.568;6.998;2023-12-29T05:02:52;48.75;41.60;57.25;;
64996;Laerm;51545;51.568;6.998;2023-12-29T05:05:18;48.76;41.59;62.06;;
64996;Laerm;51545;51.568;6.998;2023-12-29T05:07:44;49.44;41.54;58.29;;
64996;Laerm;51545;51.568;6.998;2023-12-29T05:10:10;51.04;41.66;62.25;;
64996;Laerm;51545;51.568;6.998;2023-12-29T05:16:35;49.85;41.13;62.73;;
64996;Laerm;51545;51.568;6.998;2023-12-29T05:19:01;54.04;40.83;62.41;;
64996;Laerm;51545;51.568;6.998;2023-12-29T05:21:27;52.16;40.31;61.91;;
64996;Laerm;51545;51.568;6.998;2023-12-29T05:23:53;45.22;39.37;53.41;;
64996;Laerm;51545;51.568;6.998;2023-12-29T05:26:19;46.77;40.29;57.28;;
64996;Laerm;51545;51.568;6.998;2023-12-29T05:28:44;50.14;40.94;61.20;;
64996;Laerm;51545;51.568;6.998;2023-12-29T05:31:10;51.08;42.59;61.50;;
64996;Laerm;51545;51.568;6.998;2023-12-29T05:33:36;49.79;41.43;59.68;;
64996;Laerm;51545;51.568;6.998;2023-12-29T05:36:08;56.06;42.18;67.88;;
64996;Laerm;51545;51.568;6.998;2023-12-29T05:38:35;50.23;41.83;59.45;;
64996;Laerm;51545;51.568;6.998;2023-12-29T05:41:04;50.29;41.98;64.57;;
64996;Laerm;51545;51.568;6.998;2023-12-29T05:43:31;53.70;42.93;64.53;;
64996;Laerm;51545;51.568;6.998;2023-12-29T05:45:58;49.14;41.65;65.01;;
64996;Laerm;51545;51.568;6.998;2023-12-29T05:48:24;48.72;40.92;62.64;;
64996;Laerm;51545;51.568;6.998;2023-12-29T05:50:51;54.21;43.15;64.61;;
64996;Laerm;51545;51.568;6.998;2023-12-29T05:53:17;52.07;42.87;67.46;;
64996;Laerm;51545;51.568;6.998;2023-12-29T05:55:43;55.25;44.14;65.98;;
64996;Laerm;51545;51.568;6.998;2023-12-29T05:58:10;53.27;43.26;64.62;;
64996;Laerm;51545;51.568;6.998;2023-12-29T06:00:39;52.31;42.63;71.65;;
64996;Laerm;51545;51.568;6.998;2023-12-29T06:03:05;53.39;41.94;63.97;;
64996;Laerm;51545;51.568;6.998;2023-12-29T06:05:32;53.05;42.66;64.03;;
64996;Laerm;51545;51.568;6.998;2023-12-29T06:07:58;53.49;41.94;68.16;;
64996;Laerm;51545;51.568;6.998;2023-12-29T06:10:24;54.27;42.27;67.01;;
64996;Laerm;51545;51.568;6.998;2023-12-29T06:12:50;54.83;41.84;64.69;;
64996;Laerm;51545;51.568;6.998;2023-12-29T06:15:16;57.81;43.32;72.48;;
64996;Laerm;51545;51.568;6.998;2023-12-29T06:17:43;57.32;45.87;66.83;;
64996;Laerm;51545;51.568;6.998;2023-12-29T06:20:10;54.96;47.07;64.77;;
64996;Laerm;51545;51.568;6.998;2023-12-29T06:22:40;55.68;46.02;66.44;;
64996;Laerm;51545;51.568;6.998;2023-12-29T06:25:11;57.96;45.28;69.04;;
64996;Laerm;51545;51.568;6.998;2023-12-29T06:27:38;59.36;42.79;72.29;;
64996;Laerm;51545;51.568;6.998;2023-12-29T06:30:06;57.68;45.08;68.43;;
64996;Laerm;51545;51.568;6.998;2023-12-29T06:36:07;56.13;42.57;69.55;;
64996;Laerm;51545;51.568;6.998;2023-12-29T06:38:33;58.45;43.82;71.15;;
64996;Laerm;51545;51.568;6.998;2023-12-29T06:41:03;58.15;42.22;76.48;;
64996;Laerm;51545;51.568;6.998;2023-12-29T06:43:30;58.28;45.68;73.71;;
64996;Laerm;51545;51.568;6.998;2023-12-29T06:45:56;61.32;46.05;74.34;;
64996;Laerm;51545;51.568;6.998;2023-12-29T06:48:22;59.28;47.88;71.75;;
64996;Laerm;51545;51.568;6.998;2023-12-29T06:50:48;63.31;45.25;76.06;;
64996;Laerm;51545;51.568;6.998;2023-12-29T06:53:14;61.17;48.10;75.29;;
64996;Laerm;51545;51.568;6.998;2023-12-29T06:55:40;62.00;43.49;75.27;;
64996;Laerm;51545;51.568;6.998;2023-12-29T06:58:07;58.28;44.89;71.61;;
64996;Laerm;51545;51.568;6.998;2023-12-29T07:00:33;56.53;43.61;70.95;;
64996;Laerm;51545;51.568;6.998;2023-12-29T07:03:02;59.61;46.47;73.30;;
64996;Laerm;51545;51.568;6.998;2023-12-29T07:05:28;61.69;44.26;75.53;;
64996;Laerm;51545;51.568;6.998;2023-12-29T07:07:54;60.09;46.77;76.46;;
64996;Laerm;51545;51.568;6.998;2023-12-29T07:10:20;57.02;44.39;68.34;;
64996;Laerm;51545;51.568;6.998;2023-12-29T07:12:46;59.06;44.41;71.81;;
64996;Laerm;51545;51.568;6.998;2023-12-29T07:15:14;54.89;43.69;66.92;;
64996;Laerm;51545;51.568;6.998;2023-12-29T07:17:40;56.86;45.71;72.56;;
64996;Laerm;51545;51.568;6.998;2023-12-29T07:20:07;54.85;42.19;66.13;;
64996;Laerm;51545;51.568;6.998;2023-12-29T07:22:33;55.58;43.58;67.01;;
64996;Laerm;51545;51.568;6.998;2023-12-29T07:24:59;53.38;42.92;63.71;;
64996;Laerm;51545;51.568;6.998;2023-12-29T07:27:25;54.60;40.73;66.38;;
64996;Laerm;51545;51.568;6.998;2023-12-29T07:29:51;52.07;41.71;64.86;;
64996;Laerm;51545;51.568;6.998;2023-12-29T07:32:17;53.94;42.57;67.05;;
64996;Laerm;51545;51.568;6.998;2023-12-29T07:34:44;54.33;43.10;64.79;;
64996;Laerm;51545;51.568;6.998;2023-12-29T07:37:10;50.98;42.97;62.36;;
64996;Laerm;51545;51.568;6.998;2023-12-29T07:39:36;53.51;44.03;64.35;;
64996;Laerm;51545;51.568;6.998;2023-12-29T07:42:03;51.46;42.02;65.30;;
64996;Laerm;51545;51.568;6.998;2023-12-29T07:44:29;53.79;43.94;63.88;;
64996;Laerm;51545;51.568;6.998;2023-12-29T07:46:57;52.56;41.30;63.72;;
64996;Laerm;51545;51.568;6.998;2023-12-29T07:49:23;53.27;42.30;63.03;;
64996;Laerm;51545;51.568;6.998;2023-12-29T07:51:49;51.75;42.38;60.91;;
64996;Laerm;51545;51.568;6.998;2023-12-29T07:54:15;51.94;42.53;68.33;;
64996;Laerm;51545;51.568;6.998;2023-12-29T07:56:42;52.98;43.68;63.44;;
64996;Laerm;51545;51.568;6.998;2023-12-29T07:59:08;53.82;42.05;67.76;;
64996;Laerm;51545;51.568;6.998;2023-12-29T08:01:36;57.05;45.76;68.20;;
64996;Laerm;51545;51.568;6.998;2023-12-29T08:04:03;55.14;44.64;67.19;;
64996;Laerm;51545;51.568;6.998;2023-12-29T08:06:29;52.79;43.18;63.54;;
64996;Laerm;51545;51.568;6.998;2023-12-29T08:08:55;55.56;42.78;68.77;;
64996;Laerm;51545;51.568;6.998;2023-12-29T08:11:21;55.57;43.68;63.37;;
64996;Laerm;51545;51.568;6.998;2023-12-29T08:13:48;56.39;45.61;67.71;;
64996;Laerm;51545;51.568;6.998;2023-12-29T08:16:17;58.77;43.33;73.07;;
64996;Laerm;51545;51.568;6.998;2023-12-29T08:18:44;52.92;42.52;65.00;;
64996;Laerm;51545;51.568;6.998;2023-12-29T08:21:18;56.20;45.44;68.36;;
64996;Laerm;51545;51.568;6.998;2023-12-29T08:23:48;55.97;45.23;68.18;;
64996;Laerm;51545;51.568;6.998;2023-12-29T08:26:15;57.33;43.70;71.42;;
64996;Laerm;51545;51.568;6.998;2023-12-29T08:28:41;58.50;43.78;76.96;;
64996;Laerm;51545;51.568;6.998;2023-12-29T08:31:07;57.09;46.34;69.47;;
64996;Laerm;51545;51.568;6.998;2023-12-29T08:33:34;61.34;46.27;72.38;;
64996;Laerm;51545;51.568;6.998;2023-12-29T08:36:02;58.27;45.66;70.41;;
64996;Laerm;51545;51.568;6.998;2023-12-29T08:38:29;55.24;42.48;67.61;;
64996;Laerm;51545;51.568;6.998;2023-12-29T08:40:57;55.82;45.71;69.83;;
64996;Laerm;51545;51.568;6.998;2023-12-29T08:43:23;56.04;43.05;67.80;;
64996;Laerm;51545;51.568;6.998;2023-12-29T08:45:49;53.78;41.17;66.52;;
64996;Laerm;51545;51.568;6.998;2023-12-29T08:48:15;53.94;45.75;65.14;;
64996;Laerm;51545;51.568;6.998;2023-12-29T08:50:43;52.73;41.80;64.59;;
64996;Laerm;51545;51.568;6.998;2023-12-29T08:53:09;52.24;43.20;64.51;;
64996;Laerm;51545;51.568;6.998;2023-12-29T08:55:35;52.29;43.32;64.99;;
64996;Laerm;51545;51.568;6.998;2023-12-29T08:58:01;56.38;41.66;66.94;;
64996;Laerm;51545;51.568;6.998;2023-12-29T09:00:28;54.04;42.32;62.93;;
64996;Laerm;51545;51.568;6.998;2023-12-29T09:02:59;53.60;44.69;63.43;;
64996;Laerm;51545;51.568;6.998;2023-12-29T09:05:25;55.33;45.89;67.10;;
64996;Laerm;51545;51.568;6.998;2023-12-29T09:07:51;55.55;45.27;66.02;;
64996;Laerm;51545;51.568;6.998;2023-12-29T09:10:17;56.22;42.89;69.97;;
64996;Laerm;51545;51.568;6.998;2023-12-29T09:12:44;53.75;44.47;62.65;;
64996;Laerm;51545;51.568;6.998;2023-12-29T09:15:10;56.73;46.10;69.58;;
64996;Laerm;51545;51.568;6.998;2023-12-29T09:17:36;57.26;44.45;69.95;;
64996;Laerm;51545;51.568;6.998;2023-12-29T09:20:03;51.77;41.95;63.46;;
64996;Laerm;51545;51.568;6.998;2023-12-29T09:22:29;55.35;43.59;65.87;;
64996;Laerm;51545;51.568;6.998;2023-12-29T09:24:55;51.15;43.38;61.63;;
64996;Laerm;51545;51.568;6.998;2023-12-29T09:27:21;53.88;44.94;64.39;;
64996;Laerm;51545;51.568;6.998;2023-12-29T09:29:47;54.03;41.65;63.54;;
64996;Laerm;51545;51.568;6.998;2023-12-29T09:32:13;56.61;44.52;69.87;;
64996;Laerm;51545;51.568;6.998;2023-12-29T09:34:39;53.22;43.83;65.65;;
64996;Laerm;51545;51.568;6.998;2023-12-29T09:37:05;54.63;43.54;65.74;;
64996;Laerm;51545;51.568;6.998;2023-12-29T09:39:32;56.60;45.07;67.81;;
64996;Laerm;51545;51.568;6.998;2023-12-29T09:42:03;54.63;43.42;66.74;;
64996;Laerm;51545;51.568;6.998;2023-12-29T09:44:31;54.44;43.97;63.13;;
64996;Laerm;51545;51.568;6.998;2023-12-29T09:47:02;54.11;45.34;63.61;;
64996;Laerm;51545;51.568;6.998;2023-12-29T09:49:38;54.63;44.79;65.51;;
64996;Laerm;51545;51.568;6.998;2023-12-29T09:52:09;52.76;45.53;62.64;;
64996;Laerm;51545;51.568;6.998;2023-12-29T09:54:36;54.53;43.79;65.90;;
64996;Laerm;51545;51.568;6.998;2023-12-29T09:57:04;54.04;41.17;69.72;;
64996;Laerm;51545;51.568;6.998;2023-12-29T09:59:36;51.64;41.58;62.98;;
64996;Laerm;51545;51.568;6.998;2023-12-29T10:02:14;55.12;43.77;65.65;;
64996;Laerm;51545;51.568;6.998;2023-12-29T10:04:41;57.76;45.49;68.23;;
64996;Laerm;51545;51.568;6.998;2023-12-29T10:07:08;56.57;44.59;67.31;;
64996;Laerm;51545;51.568;6.998;2023-12-29T10:09:37;57.88;47.54;69.65;;
64996;Laerm;51545;51.568;6.998;2023-12-29T10:12:06;60.11;44.96;75.31;;
64996;Laerm;51545;51.568;6.998;2023-12-29T10:17:28;56.97;47.42;67.74;;
64996;Laerm;51545;51.568;6.998;2023-12-29T10:25:32;56.86;44.33;71.07;;
64996;Laerm;51545;51.568;6.998;2023-12-29T10:27:59;61.13;46.27;77.77;;
64996;Laerm;51545;51.568;6.998;2023-12-29T10:30:26;57.52;45.00;67.77;;
64996;Laerm;51545;51.568;6.998;2023-12-29T10:32:52;57.22;45.75;70.01;;
64996;Laerm;51545;51.568;6.998;2023-12-29T10:35:18;57.09;42.37;70.28;;
64996;Laerm;51545;51.568;6.998;2023-12-29T10:37:45;55.42;43.20;71.39;;
64996;Laerm;51545;51.568;6.998;2023-12-29T10:40:19;58.50;45.66;72.70;;
64996;Laerm;51545;51.568;6.998;2023-12-29T10:42:54;55.77;43.78;69.94;;
64996;Laerm;51545;51.568;6.998;2023-12-29T10:45:20;55.42;42.51;71.88;;
64996;Laerm;51545;51.568;6.998;2023-12-29T10:47:48;56.72;46.74;71.45;;
64996;Laerm;51545;51.568;6.998;2023-12-29T10:50:14;55.74;46.33;70.62;;
64996;Laerm;51545;51.568;6.998;2023-12-29T10:52:40;55.27;43.48;66.00;;
64996;Laerm;51545;51.568;6.998;2023-12-29T10:55:11;54.96;43.85;68.09;;
64996;Laerm;51545;51.568;6.998;2023-12-29T10:57:38;52.70;41.70;63.23;;
64996;Laerm;51545;51.568;6.998;2023-12-29T11:00:06;55.31;43.54;68.35;;
64996;Laerm;51545;51.568;6.998;2023-12-29T11:06:44;57.66;46.67;71.07;;
64996;Laerm;51545;51.568;6.998;2023-12-29T11:09:14;58.79;46.33;69.56;;
64996;Laerm;51545;51.568;6.998;2023-12-29T11:11:40;58.39;45.47;73.79;;
64996;Laerm;51545;51.568;6.998;2023-12-29T11:14:10;58.14;45.42;68.82;;
64996;Laerm;51545;51.568;6.998;2023-12-29T11:16:38;55.69;45.34;67.30;;
64996;Laerm;51545;51.568;6.998;2023-12-29T11:19:07;59.41;48.40;68.96;;
64996;Laerm;51545;51.568;6.998;2023-12-29T11:21:35;60.95;46.65;71.21;;
64996;Laerm;51545;51.568;6.998;2023-12-29T11:24:01;59.39;47.52;70.32;;
64996;Laerm;51545;51.568;6.998;2023-12-29T11:26:28;60.76;46.36;72.27;;
64996;Laerm;51545;51.568;6.998;2023-12-29T11:28:55;58.21;48.08;68.07;;
64996;Laerm;51545;51.568;6.998;2023-12-29T11:31:21;60.39;47.64;71.15;;
64996;Laerm;51545;51.568;6.998;2023-12-29T11:33:57;62.72;48.27;79.58;;
64996;Laerm;51545;51.568;6.998;2023-12-29T11:36:30;60.08;47.28;71.44;;
64996;Laerm;51545;51.568;6.998;2023-12-29T11:39:03;60.28;47.78;71.15;;
64996;Laerm;51545;51.568;6.998;2023-12-29T11:44:24;58.40;45.59;74.33;;
64996;Laerm;51545;51.568;6.998;2023-12-29T11:46:51;58.00;44.76;71.28;;
64996;Laerm;51545;51.568;6.998;2023-12-29T11:49:18;60.18;46.88;71.99;;
64996;Laerm;51545;51.568;6.998;2023-12-29T11:51:49;59.85;43.63;74.30;;
64996;Laerm;51545;51.568;6.998;2023-12-29T11:54:26;57.82;43.95;68.64;;
64996;Laerm;51545;51.568;6.998;2023-12-29T11:56:55;58.95;43.32;75.33;;
64996;Laerm;51545;51.568;6.998;2023-12-29T11:59:25;59.38;45.89;73.37;;
64996;Laerm;51545;51.568;6.998;2023-12-29T12:01:55;56.08;43.04;70.62;;
64996;Laerm;51545;51.568;6.998;2023-12-29T12:04:43;57.05;44.14;74.75;;
64996;Laerm;51545;51.568;6.998;2023-12-29T12:07:16;58.17;44.87;71.40;;
64996;Laerm;51545;51.568;6.998;2023-12-29T12:09:43;60.02;43.86;75.84;;
64996;Laerm;51545;51.568;6.998;2023-12-29T12:12:10;60.38;47.48;76.12;;
64996;Laerm;51545;51.568;6.998;2023-12-29T12:14:50;58.20;45.18;71.63;;
64996;Laerm;51545;51.568;6.998;2023-12-29T12:17:33;58.87;42.33;76.07;;
64996;Laerm;51545;51.568;6.998;2023-12-29T12:20:11;58.64;44.42;74.06;;
64996;Laerm;51545;51.568;6.998;2023-12-29T12:22:39;57.23;42.44;73.91;;
64996;Laerm;51545;51.568;6.998;2023-12-29T12:25:07;58.56;46.82;73.12;;
64996;Laerm;51545;51.568;6.998;2023-12-29T12:27:33;59.99;44.83;75.64;;
64996;Laerm;51545;51.568;6.998;2023-12-29T12:29:59;56.65;44.05;72.18;;
64996;Laerm;51545;51.568;6.998;2023-12-29T12:32:27;57.22;45.34;69.19;;
64996;Laerm;51545;51.568;6.998;2023-12-29T12:34:53;57.06;40.00;73.96;;
64996;Laerm;51545;51.568;6.998;2023-12-29T12:37:23;58.54;45.50;72.73;;
64996;Laerm;51545;51.568;6.998;2023-12-29T12:39:50;59.80;45.73;74.86;;
64996;Laerm;51545;51.568;6.998;2023-12-29T12:42:22;57.24;42.65;71.39;;
64996;Laerm;51545;51.568;6.998;2023-12-29T12:45:06;59.71;43.86;76.76;;
64996;Laerm;51545;51.568;6.998;2023-12-29T12:47:50;58.82;43.03;72.90;;
64996;Laerm;51545;51.568;6.998;2023-12-29T12:50:17;58.89;40.97;76.93;;
64996;Laerm;51545;51.568;6.998;2023-12-29T12:56:43;51.01;40.38;65.48;;
64996;Laerm;51545;51.568;6.998;2023-12-29T12:59:09;47.84;38.89;61.07;;
64996;Laerm;51545;51.568;6.998;2023-12-29T13:01:37;45.46;38.84;61.50;;
64996;Laerm;51545;51.568;6.998;2023-12-29T13:04:04;45.73;39.01;55.88;;
64996;Laerm;51545;51.568;6.998;2023-12-29T13:06:34;46.29;38.20;58.81;;
64996;Laerm;51545;51.568;6.998;2023-12-29T13:09:11;46.84;39.43;57.09;;
64996;Laerm;51545;51.568;6.998;2023-12-29T13:11:41;43.20;38.97;52.32;;
64996;Laerm;51545;51.568;6.998;2023-12-29T13:14:07;43.42;38.25;51.29;;
64996;Laerm;51545;51.568;6.998;2023-12-29T13:16:35;41.35;38.11;50.91;;
64996;Laerm;51545;51.568;6.998;2023-12-29T13:19:23;41.92;38.12;54.40;;
64996;Laerm;51545;51.568;6.998;2023-12-29T13:21:55;40.24;37.61;48.73;;
64996;Laerm;51545;51.568;6.998;2023-12-29T13:24:22;40.64;37.76;49.25;;
64996;Laerm;51545;51.568;6.998;2023-12-29T13:26:54;40.98;37.89;53.35;;
64996;Laerm;51545;51.568;6.998;2023-12-29T13:29:24;41.55;37.96;51.29;;
64996;Laerm;51545;51.568;6.998;2023-12-29T13:31:55;42.28;38.07;48.82;;
64996;Laerm;51545;51.568;6.998;2023-12-29T13:35:25;43.24;38.41;54.83;;
64996;Laerm;51545;51.568;6.998;2023-12-29T13:37:48;43.30;37.43;56.31;;
64996;Laerm;51545;51.568;6.998;2023-12-29T13:40:28;41.00;38.27;51.80;;
64996;Laerm;51545;51.568;6.998;2023-12-29T13:43:02;42.63;38.50;52.43;;
64996;Laerm;51545;51.568;6.998;2023-12-29T13:45:30;42.65;38.18;51.80;;
64996;Laerm;51545;51.568;6.998;2023-12-29T13:47:56;39.91;37.25;50.96;;
64996;Laerm;51545;51.568;6.998;2023-12-29T13:50:23;39.03;37.35;46.20;;
64996;Laerm;51545;51.568;6.998;2023-12-29T13:52:50;40.09;37.47;50.16;;
64996;Laerm;51545;51.568;6.998;2023-12-29T13:55:23;38.76;37.29;43.56;;
64996;Laerm;51545;51.568;6.998;2023-12-29T13:57:50;39.73;37.53;47.10;;
64996;Laerm;51545;51.568;6.998;2023-12-29T14:00:23;40.28;38.05;49.61;;
64996;Laerm;51545;51.568;6.998;2023-12-29T14:02:57;39.55;37.40;45.78;;
64996;Laerm;51545;51.568;6.998;2023-12-29T14:05:27;39.48;37.68;45.58;;
64996;Laerm;51545;51.568;6.998;2023-12-29T14:07:59;41.03;37.98;52.31;;
64996;Laerm;51545;51.568;6.998;2023-12-29T14:10:34;42.34;38.16;53.46;;
64996;Laerm;51545;51.568;6.998;2023-12-29T14:13:09;41.87;38.32;51.31;;
64996;Laerm;51545;51.568;6.998;2023-12-29T14:15:38;40.55;38.10;48.07;;
64996;Laerm;51545;51.568;6.998;2023-12-29T14:20:40;40.89;38.05;51.46;;